sensor_id;sensor_type;location;lat;lon;timestamp;pressure;altitude;pressure_sealevel;temperature;humidity
65175;BME280;51761;42.126;24.752;2023-06-14T00:00:38;99241.81;;;21.24;86.34
65175;BME280;51761;42.126;24.752;2023-06-14T00:03:07;99239.22;;;21.26;87.03
65175;BME280;51761;42.126;24.752;2023-06-14T00:05:35;99252.72;;;21.31;87.59
65175;BME280;51761;42.126;24.752;2023-06-14T00:08:06;99233.75;;;21.17;87.64
65175;BME280;51761;42.126;24.752;2023-06-14T00:10:34;99258.53;;;21.17;88.87
65175;BME280;51761;42.126;24.752;2023-06-14T00:13:04;99229.00;;;21.03;89.12
65175;BME280;51761;42.126;24.752;2023-06-14T00:15:31;99247.88;;;21.12;89.76
65175;BME280;51761;42.126;24.752;2023-06-14T00:17:57;99229.28;;;21.05;88.19
65175;BME280;51761;42.126;24.752;2023-06-14T00:20:26;99253.28;;;21.10;88.70
65175;BME280;51761;42.126;24.752;2023-06-14T00:22:54;99231.84;;;21.03;88.77
65175;BME280;51761;42.126;24.752;2023-06-14T00:25:23;99257.00;;;21.16;88.73
65175;BME280;51761;42.126;24.752;2023-06-14T00:27:51;99264.66;;;21.10;89.55
65175;BME280;51761;42.126;24.752;2023-06-14T00:30:16;99251.97;;;21.05;89.25
65175;BME280;51761;42.126;24.752;2023-06-14T00:32:43;99254.56;;;21.09;89.64
65175;BME280;51761;42.126;24.752;2023-06-14T00:35:09;99240.84;;;21.02;89.98
65175;BME280;51761;42.126;24.752;2023-06-14T00:37:35;99239.06;;;21.04;89.66
65175;BME280;51761;42.126;24.752;2023-06-14T00:40:00;99212.31;;;20.86;90.63
65175;BME280;51761;42.126;24.752;2023-06-14T00:42:27;99241.66;;;21.08;90.16
65175;BME280;51761;42.126;24.752;2023-06-14T00:44:53;99240.06;;;21.01;90.44
65175;BME280;51761;42.126;24.752;2023-06-14T00:47:18;99236.13;;;20.93;91.61
65175;BME280;51761;42.126;24.752;2023-06-14T00:49:48;99239.22;;;20.95;91.45
65175;BME280;51761;42.126;24.752;2023-06-14T00:52:15;99234.69;;;21.03;90.75
65175;BME280;51761;42.126;24.752;2023-06-14T00:54:42;99210.06;;;20.95;91.33
65175;BME280;51761;42.126;24.752;2023-06-14T00:57:09;99211.63;;;20.96;91.16
65175;BME280;51761;42.126;24.752;2023-06-14T00:59:41;99216.91;;;21.08;91.38
65175;BME280;51761;42.126;24.752;2023-06-14T01:02:07;99210.84;;;20.95;91.46
65175;BME280;51761;42.126;24.752;2023-06-14T01:04:32;99230.81;;;21.06;91.51
65175;BME280;51761;42.126;24.752;2023-06-14T01:15:35;99223.28;;;20.78;93.83
65175;BME280;51761;42.126;24.752;2023-06-14T01:18:02;99221.53;;;20.81;94.25
65175;BME280;51761;42.126;24.752;2023-06-14T01:20:33;99221.97;;;20.74;94.66
65175;BME280;51761;42.126;24.752;2023-06-14T01:23:02;99231.53;;;20.76;94.80
65175;BME280;51761;42.126;24.752;2023-06-14T01:25:28;99218.34;;;20.73;95.11
65175;BME280;51761;42.126;24.752;2023-06-14T01:28:02;99230.22;;;20.72;95.96
65175;BME280;51761;42.126;24.752;2023-06-14T01:30:29;99226.09;;;20.73;95.66
65175;BME280;51761;42.126;24.752;2023-06-14T01:32:56;99220.34;;;20.67;96.00
65175;BME280;51761;42.126;24.752;2023-06-14T01:35:23;99211.91;;;20.73;95.98
65175;BME280;51761;42.126;24.752;2023-06-14T01:37:49;99227.78;;;20.85;95.97
65175;BME280;51761;42.126;24.752;2023-06-14T01:40:16;99226.00;;;20.87;95.66
65175;BME280;51761;42.126;24.752;2023-06-14T01:42:43;99220.53;;;20.84;96.05
65175;BME280;51761;42.126;24.752;2023-06-14T01:45:10;99220.34;;;20.87;95.43
65175;BME280;51761;42.126;24.752;2023-06-14T01:47:36;99232.66;;;20.84;96.61
65175;BME280;51761;42.126;24.752;2023-06-14T01:50:03;99213.50;;;20.79;95.95
65175;BME280;51761;42.126;24.752;2023-06-14T01:52:29;99200.22;;;20.65;96.32
65175;BME280;51761;42.126;24.752;2023-06-14T01:54:55;99222.53;;;20.78;96.93
65175;BME280;51761;42.126;24.752;2023-06-14T01:57:21;99216.59;;;20.81;95.69
65175;BME280;51761;42.126;24.752;2023-06-14T01:59:47;99224.56;;;20.77;96.02
65175;BME280;51761;42.126;24.752;2023-06-14T02:02:14;99224.09;;;20.79;96.52
65175;BME280;51761;42.126;24.752;2023-06-14T02:04:40;99227.13;;;20.75;96.87
65175;BME280;51761;42.126;24.752;2023-06-14T02:07:06;99208.19;;;20.61;96.78
65175;BME280;51761;42.126;24.752;2023-06-14T02:09:31;99226.09;;;20.73;97.31
65175;BME280;51761;42.126;24.752;2023-06-14T02:11:57;99229.09;;;20.64;98.17
65175;BME280;51761;42.126;24.752;2023-06-14T02:14:23;99236.47;;;20.56;98.64
65175;BME280;51761;42.126;24.752;2023-06-14T02:16:48;99229.69;;;20.48;99.91
65175;BME280;51761;42.126;24.752;2023-06-14T02:19:15;99227.59;;;20.43;100.00
65175;BME280;51761;42.126;24.752;2023-06-14T02:21:41;99228.69;;;20.51;99.30
65175;BME280;51761;42.126;24.752;2023-06-14T02:24:07;99206.38;;;20.38;98.78
65175;BME280;51761;42.126;24.752;2023-06-14T02:26:33;99226.59;;;20.46;98.68
65175;BME280;51761;42.126;24.752;2023-06-14T02:28:59;99229.41;;;20.46;98.43
65175;BME280;51761;42.126;24.752;2023-06-14T02:31:25;99200.06;;;20.29;99.10
65175;BME280;51761;42.126;24.752;2023-06-14T02:33:51;99209.66;;;20.31;98.43
65175;BME280;51761;42.126;24.752;2023-06-14T02:36:16;99237.84;;;20.40;98.71
65175;BME280;51761;42.126;24.752;2023-06-14T02:38:42;99210.44;;;20.12;99.34
65175;BME280;51761;42.126;24.752;2023-06-14T02:41:07;99228.50;;;20.34;98.87
65175;BME280;51761;42.126;24.752;2023-06-14T02:43:33;99238.78;;;20.32;98.50
65175;BME280;51761;42.126;24.752;2023-06-14T02:45:59;99242.69;;;20.34;99.28
65175;BME280;51761;42.126;24.752;2023-06-14T02:48:24;99243.50;;;20.60;100.00
65175;BME280;51761;42.126;24.752;2023-06-14T02:50:50;99233.81;;;20.72;100.00
65175;BME280;51761;42.126;24.752;2023-06-14T02:53:16;99232.88;;;20.81;100.00
65175;BME280;51761;42.126;24.752;2023-06-14T02:55:42;99233.53;;;20.90;100.00
65175;BME280;51761;42.126;24.752;2023-06-14T02:58:07;99242.06;;;20.95;98.90
65175;BME280;51761;42.126;24.752;2023-06-14T03:00:33;99252.53;;;21.09;100.00
65175;BME280;51761;42.126;24.752;2023-06-14T03:03:00;99245.09;;;21.17;100.00
65175;BME280;51761;42.126;24.752;2023-06-14T03:05:27;99244.91;;;21.26;100.00
65175;BME280;51761;42.126;24.752;2023-06-14T03:07:53;99252.22;;;21.33;100.00
65175;BME280;51761;42.126;24.752;2023-06-14T03:10:19;99231.44;;;21.21;100.00
65175;BME280;51761;42.126;24.752;2023-06-14T03:12:44;99239.94;;;21.16;100.00
65175;BME280;51761;42.126;24.752;2023-06-14T03:15:10;99261.78;;;21.35;94.46
65175;BME280;51761;42.126;24.752;2023-06-14T03:17:38;99261.53;;;21.33;99.97
65175;BME280;51761;42.126;24.752;2023-06-14T03:20:04;99269.22;;;21.27;96.37
65175;BME280;51761;42.126;24.752;2023-06-14T03:22:30;99245.06;;;21.12;97.86
65175;BME280;51761;42.126;24.752;2023-06-14T03:24:57;99266.88;;;21.26;99.31
65175;BME280;51761;42.126;24.752;2023-06-14T03:27:24;99249.22;;;21.16;98.65
65175;BME280;51761;42.126;24.752;2023-06-14T03:29:50;99257.13;;;21.01;96.52
65175;BME280;51761;42.126;24.752;2023-06-14T03:32:16;99244.47;;;21.02;97.11
65175;BME280;51761;42.126;24.752;2023-06-14T03:34:42;99276.47;;;21.28;99.36
65175;BME280;51761;42.126;24.752;2023-06-14T03:37:07;99282.63;;;21.27;96.76
65175;BME280;51761;42.126;24.752;2023-06-14T03:39:33;99285.97;;;21.25;97.13
65175;BME280;51761;42.126;24.752;2023-06-14T03:41:58;99282.41;;;21.30;97.50
65175;BME280;51761;42.126;24.752;2023-06-14T03:44:26;99272.88;;;21.33;97.61
65175;BME280;51761;42.126;24.752;2023-06-14T03:46:52;99278.84;;;21.35;94.91
65175;BME280;51761;42.126;24.752;2023-06-14T03:49:18;99270.47;;;21.26;99.15
65175;BME280;51761;42.126;24.752;2023-06-14T03:51:45;99299.91;;;21.54;93.72
65175;BME280;51761;42.126;24.752;2023-06-14T03:54:16;99298.03;;;21.46;95.82
65175;BME280;51761;42.126;24.752;2023-06-14T03:56:41;99285.25;;;21.30;97.61
65175;BME280;51761;42.126;24.752;2023-06-14T03:59:07;99295.47;;;21.48;100.00
65175;BME280;51761;42.126;24.752;2023-06-14T04:01:32;99304.03;;;21.53;97.31
65175;BME280;51761;42.126;24.752;2023-06-14T04:03:58;99302.47;;;21.52;96.22
65175;BME280;51761;42.126;24.752;2023-06-14T04:06:24;99289.19;;;21.38;93.31
65175;BME280;51761;42.126;24.752;2023-06-14T04:08:58;99308.84;;;21.42;94.47
65175;BME280;51761;42.126;24.752;2023-06-14T04:11:27;99313.53;;;21.45;90.18
65175;BME280;51761;42.126;24.752;2023-06-14T04:13:52;99309.63;;;21.42;93.26
65175;BME280;51761;42.126;24.752;2023-06-14T04:16:19;99314.97;;;21.35;91.19
65175;BME280;51761;42.126;24.752;2023-06-14T04:18:44;99321.78;;;21.43;95.01
65175;BME280;51761;42.126;24.752;2023-06-14T04:21:11;99318.63;;;21.41;93.94
65175;BME280;51761;42.126;24.752;2023-06-14T04:23:37;99314.81;;;21.44;92.67
65175;BME280;51761;42.126;24.752;2023-06-14T04:26:03;99322.09;;;21.50;93.76
65175;BME280;51761;42.126;24.752;2023-06-14T04:28:29;99319.22;;;21.45;91.55
65175;BME280;51761;42.126;24.752;2023-06-14T04:30:55;99314.03;;;21.43;92.26
65175;BME280;51761;42.126;24.752;2023-06-14T04:33:21;99302.59;;;21.38;93.21
65175;BME280;51761;42.126;24.752;2023-06-14T04:35:48;99317.13;;;21.45;92.69
65175;BME280;51761;42.126;24.752;2023-06-14T04:38:13;99313.47;;;21.39;92.93
65175;BME280;51761;42.126;24.752;2023-06-14T04:40:41;99307.84;;;21.45;92.95
65175;BME280;51761;42.126;24.752;2023-06-14T04:43:09;99323.84;;;21.73;93.95
65175;BME280;51761;42.126;24.752;2023-06-14T04:45:38;99333.13;;;21.68;92.82
65175;BME280;51761;42.126;24.752;2023-06-14T04:48:05;99307.06;;;21.70;94.45
65175;BME280;51761;42.126;24.752;2023-06-14T04:50:32;99312.09;;;21.91;88.98
65175;BME280;51761;42.126;24.752;2023-06-14T04:52:58;99337.34;;;22.20;91.18
65175;BME280;51761;42.126;24.752;2023-06-14T04:55:24;99304.38;;;21.97;89.19
65175;BME280;51761;42.126;24.752;2023-06-14T04:57:51;99312.47;;;22.10;89.98
65175;BME280;51761;42.126;24.752;2023-06-14T05:00:19;99328.50;;;22.13;90.90
65175;BME280;51761;42.126;24.752;2023-06-14T05:02:45;99338.66;;;22.19;89.17
65175;BME280;51761;42.126;24.752;2023-06-14T05:05:12;99339.22;;;22.29;87.22
65175;BME280;51761;42.126;24.752;2023-06-14T05:07:37;99344.38;;;22.30;86.64
65175;BME280;51761;42.126;24.752;2023-06-14T05:10:04;99320.03;;;22.18;88.76
65175;BME280;51761;42.126;24.752;2023-06-14T05:12:30;99345.97;;;22.37;88.04
65175;BME280;51761;42.126;24.752;2023-06-14T05:14:55;99358.66;;;22.36;86.65
65175;BME280;51761;42.126;24.752;2023-06-14T05:17:24;99345.19;;;22.36;88.11
65175;BME280;51761;42.126;24.752;2023-06-14T05:19:49;99342.91;;;22.40;86.46
65175;BME280;51761;42.126;24.752;2023-06-14T05:22:15;99339.03;;;22.38;88.17
65175;BME280;51761;42.126;24.752;2023-06-14T05:24:40;99354.38;;;22.51;86.20
65175;BME280;51761;42.126;24.752;2023-06-14T05:27:07;99360.84;;;22.57;87.83
65175;BME280;51761;42.126;24.752;2023-06-14T05:29:32;99352.84;;;22.61;85.48
65175;BME280;51761;42.126;24.752;2023-06-14T05:31:58;99343.50;;;22.55;87.65
65175;BME280;51761;42.126;24.752;2023-06-14T05:34:23;99363.81;;;22.79;83.53
65175;BME280;51761;42.126;24.752;2023-06-14T05:36:51;99371.75;;;22.64;84.80
65175;BME280;51761;42.126;24.752;2023-06-14T05:39:16;99366.28;;;22.55;84.58
65175;BME280;51761;42.126;24.752;2023-06-14T05:41:42;99371.47;;;22.62;85.91
65175;BME280;51761;42.126;24.752;2023-06-14T05:44:09;99355.09;;;22.41;83.29
65175;BME280;51761;42.126;24.752;2023-06-14T05:46:34;99374.03;;;22.49;83.55
65175;BME280;51761;42.126;24.752;2023-06-14T05:49:00;99361.41;;;22.66;83.64
65175;BME280;51761;42.126;24.752;2023-06-14T05:51:25;99396.16;;;22.76;83.18
65175;BME280;51761;42.126;24.752;2023-06-14T05:53:51;99393.38;;;22.92;85.97
65175;BME280;51761;42.126;24.752;2023-06-14T05:56:17;99391.13;;;23.13;82.04
65175;BME280;51761;42.126;24.752;2023-06-14T05:58:44;99387.19;;;23.05;82.45
65175;BME280;51761;42.126;24.752;2023-06-14T06:01:10;99374.47;;;22.95;83.22
65175;BME280;51761;42.126;24.752;2023-06-14T06:03:36;99393.22;;;23.18;82.18
65175;BME280;51761;42.126;24.752;2023-06-14T06:06:02;99387.03;;;23.30;83.05
65175;BME280;51761;42.126;24.752;2023-06-14T06:08:28;99381.59;;;23.38;84.24
65175;BME280;51761;42.126;24.752;2023-06-14T06:10:54;99386.00;;;23.39;84.48
65175;BME280;51761;42.126;24.752;2023-06-14T06:13:19;99368.66;;;23.37;82.41
65175;BME280;51761;42.126;24.752;2023-06-14T06:15:45;99385.28;;;23.66;80.12
65175;BME280;51761;42.126;24.752;2023-06-14T06:18:11;99366.88;;;23.67;78.84
65175;BME280;51761;42.126;24.752;2023-06-14T06:20:37;99389.44;;;23.98;79.28
65175;BME280;51761;42.126;24.752;2023-06-14T06:23:02;99367.63;;;24.06;79.09
65175;BME280;51761;42.126;24.752;2023-06-14T06:25:28;99387.31;;;24.36;77.71
65175;BME280;51761;42.126;24.752;2023-06-14T06:27:54;99365.75;;;24.41;78.90
65175;BME280;51761;42.126;24.752;2023-06-14T06:30:22;99388.53;;;24.74;75.57
65175;BME280;51761;42.126;24.752;2023-06-14T06:32:47;99362.13;;;24.57;75.35
65175;BME280;51761;42.126;24.752;2023-06-14T06:35:13;99397.97;;;25.15;72.75
65175;BME280;51761;42.126;24.752;2023-06-14T06:37:39;99397.34;;;25.38;71.84
65175;BME280;51761;42.126;24.752;2023-06-14T06:40:05;99375.94;;;25.50;73.78
65175;BME280;51761;42.126;24.752;2023-06-14T06:42:31;99402.06;;;25.30;71.57
65175;BME280;51761;42.126;24.752;2023-06-14T06:44:57;99402.25;;;25.43;69.30
65175;BME280;51761;42.126;24.752;2023-06-14T06:47:22;99401.13;;;25.57;68.47
65175;BME280;51761;42.126;24.752;2023-06-14T06:49:48;99386.47;;;25.31;69.43
65175;BME280;51761;42.126;24.752;2023-06-14T06:52:13;99392.59;;;25.46;70.52
65175;BME280;51761;42.126;24.752;2023-06-14T06:54:39;99387.94;;;25.43;68.47
65175;BME280;51761;42.126;24.752;2023-06-14T06:57:05;99412.59;;;25.52;70.15
65175;BME280;51761;42.126;24.752;2023-06-14T06:59:31;99410.25;;;25.50;69.36
65175;BME280;51761;42.126;24.752;2023-06-14T07:01:57;99410.91;;;25.67;68.52
65175;BME280;51761;42.126;24.752;2023-06-14T07:04:22;99409.19;;;25.93;66.13
65175;BME280;51761;42.126;24.752;2023-06-14T07:06:48;99403.91;;;26.32;66.54
65175;BME280;51761;42.126;24.752;2023-06-14T07:09:14;99408.16;;;26.20;65.86
65175;BME280;51761;42.126;24.752;2023-06-14T07:11:43;99386.66;;;26.38;66.45
65175;BME280;51761;42.126;24.752;2023-06-14T07:14:09;99398.13;;;26.62;65.48
65175;BME280;51761;42.126;24.752;2023-06-14T07:16:35;99399.88;;;26.89;62.22
65175;BME280;51761;42.126;24.752;2023-06-14T07:19:02;99394.47;;;27.09;62.97
65175;BME280;51761;42.126;24.752;2023-06-14T07:21:27;99400.84;;;26.97;64.39
65175;BME280;51761;42.126;24.752;2023-06-14T07:23:53;99400.03;;;26.78;63.21
65175;BME280;51761;42.126;24.752;2023-06-14T07:26:19;99378.72;;;26.73;64.58
65175;BME280;51761;42.126;24.752;2023-06-14T07:28:46;99393.63;;;27.14;61.59
65175;BME280;51761;42.126;24.752;2023-06-14T07:31:13;99388.56;;;27.39;59.98
65175;BME280;51761;42.126;24.752;2023-06-14T07:33:40;99398.63;;;27.63;59.13
65175;BME280;51761;42.126;24.752;2023-06-14T07:36:05;99387.34;;;27.53;61.57
65175;BME280;51761;42.126;24.752;2023-06-14T07:38:31;99379.91;;;27.44;59.80
65175;BME280;51761;42.126;24.752;2023-06-14T07:40:56;99394.84;;;27.56;60.72
65175;BME280;51761;42.126;24.752;2023-06-14T07:43:22;99393.66;;;27.46;62.39
65175;BME280;51761;42.126;24.752;2023-06-14T07:45:47;99375.94;;;27.29;61.85
65175;BME280;51761;42.126;24.752;2023-06-14T07:48:13;99396.03;;;27.10;62.63
65175;BME280;51761;42.126;24.752;2023-06-14T07:50:38;99398.25;;;26.75;64.83
65175;BME280;51761;42.126;24.752;2023-06-14T07:53:04;99396.19;;;26.94;65.82
65175;BME280;51761;42.126;24.752;2023-06-14T07:55:29;99389.50;;;27.28;63.69
65175;BME280;51761;42.126;24.752;2023-06-14T07:57:58;99390.28;;;27.10;63.49
65175;BME280;51761;42.126;24.752;2023-06-14T08:00:23;99392.31;;;27.34;61.55
65175;BME280;51761;42.126;24.752;2023-06-14T08:02:49;99394.59;;;27.17;62.38
65175;BME280;51761;42.126;24.752;2023-06-14T08:05:17;99402.53;;;27.29;63.21
65175;BME280;51761;42.126;24.752;2023-06-14T08:07:42;99400.13;;;27.52;59.25
65175;BME280;51761;42.126;24.752;2023-06-14T08:10:08;99397.16;;;27.39;60.45
65175;BME280;51761;42.126;24.752;2023-06-14T08:12:34;99385.31;;;27.29;61.28
65175;BME280;51761;42.126;24.752;2023-06-14T08:15:00;99401.28;;;27.25;61.05
65175;BME280;51761;42.126;24.752;2023-06-14T08:17:25;99408.19;;;26.92;61.50
65175;BME280;51761;42.126;24.752;2023-06-14T08:19:52;99410.16;;;27.03;61.70
65175;BME280;51761;42.126;24.752;2023-06-14T08:22:20;99398.44;;;27.25;60.56
65175;BME280;51761;42.126;24.752;2023-06-14T08:24:47;99405.78;;;27.39;60.25
65175;BME280;51761;42.126;24.752;2023-06-14T08:27:12;99411.47;;;27.02;61.68
65175;BME280;51761;42.126;24.752;2023-06-14T08:29:38;99401.44;;;27.14;61.16
65175;BME280;51761;42.126;24.752;2023-06-14T08:32:06;99420.97;;;27.34;61.20
65175;BME280;51761;42.126;24.752;2023-06-14T08:34:31;99406.41;;;27.32;60.27
65175;BME280;51761;42.126;24.752;2023-06-14T08:36:57;99404.78;;;27.73;57.70
65175;BME280;51761;42.126;24.752;2023-06-14T08:39:23;99412.13;;;27.68;56.54
65175;BME280;51761;42.126;24.752;2023-06-14T08:41:48;99417.41;;;27.46;58.83
65175;BME280;51761;42.126;24.752;2023-06-14T08:44:17;99427.56;;;27.84;56.84
65175;BME280;51761;42.126;24.752;2023-06-14T08:46:43;99428.53;;;28.36;55.90
65175;BME280;51761;42.126;24.752;2023-06-14T08:49:11;99417.06;;;28.62;55.85
65175;BME280;51761;42.126;24.752;2023-06-14T08:51:38;99430.84;;;28.95;56.55
65175;BME280;51761;42.126;24.752;2023-06-14T08:54:06;99414.34;;;29.09;55.58
65175;BME280;51761;42.126;24.752;2023-06-14T08:56:32;99427.81;;;29.27;54.40
65175;BME280;51761;42.126;24.752;2023-06-14T08:58:59;99422.88;;;29.01;53.54
65175;BME280;51761;42.126;24.752;2023-06-14T09:01:33;99409.13;;;29.07;52.08
65175;BME280;51761;42.126;24.752;2023-06-14T09:03:59;99424.56;;;29.56;53.25
65175;BME280;51761;42.126;24.752;2023-06-14T09:06:25;99419.81;;;29.33;50.85
65175;BME280;51761;42.126;24.752;2023-06-14T09:08:54;99422.13;;;29.47;51.26
65175;BME280;51761;42.126;24.752;2023-06-14T09:11:21;99426.31;;;29.92;51.42
65175;BME280;51761;42.126;24.752;2023-06-14T09:13:48;99405.53;;;29.53;52.68
65175;BME280;51761;42.126;24.752;2023-06-14T09:16:14;99399.34;;;29.36;51.05
65175;BME280;51761;42.126;24.752;2023-06-14T09:18:44;99401.63;;;28.65;53.45
65175;BME280;51761;42.126;24.752;2023-06-14T09:21:13;99415.19;;;28.07;53.53
65175;BME280;51761;42.126;24.752;2023-06-14T09:23:41;99412.59;;;27.72;54.93
65175;BME280;51761;42.126;24.752;2023-06-14T09:26:12;99411.03;;;27.53;55.10
65175;BME280;51761;42.126;24.752;2023-06-14T09:28:42;99394.31;;;27.20;56.16
65175;BME280;51761;42.126;24.752;2023-06-14T09:31:10;99403.47;;;27.37;58.24
65175;BME280;51761;42.126;24.752;2023-06-14T09:33:36;99404.16;;;27.25;57.35
65175;BME280;51761;42.126;24.752;2023-06-14T09:36:03;99407.03;;;27.25;56.45
65175;BME280;51761;42.126;24.752;2023-06-14T09:38:29;99394.16;;;27.31;56.21
65175;BME280;51761;42.126;24.752;2023-06-14T09:40:57;99401.66;;;27.34;57.92
65175;BME280;51761;42.126;24.752;2023-06-14T09:43:23;99387.78;;;27.20;58.65
65175;BME280;51761;42.126;24.752;2023-06-14T09:45:50;99403.31;;;27.30;56.50
65175;BME280;51761;42.126;24.752;2023-06-14T09:48:16;99400.66;;;27.13;57.07
65175;BME280;51761;42.126;24.752;2023-06-14T09:50:45;99390.78;;;26.66;58.54
65175;BME280;51761;42.126;24.752;2023-06-14T09:53:13;99393.28;;;26.75;58.44
65175;BME280;51761;42.126;24.752;2023-06-14T09:55:41;99390.84;;;26.61;58.98
65175;BME280;51761;42.126;24.752;2023-06-14T09:58:07;99386.28;;;26.52;58.50
65175;BME280;51761;42.126;24.752;2023-06-14T10:00:34;99397.38;;;26.61;59.02
65175;BME280;51761;42.126;24.752;2023-06-14T10:03:27;99391.16;;;26.28;61.78
65175;BME280;51761;42.126;24.752;2023-06-14T10:05:55;99396.25;;;25.87;65.10
65175;BME280;51761;42.126;24.752;2023-06-14T10:08:25;99388.84;;;25.62;68.41
65175;BME280;51761;42.126;24.752;2023-06-14T10:10:53;99376.38;;;24.62;74.99
65175;BME280;51761;42.126;24.752;2023-06-14T10:13:20;99371.81;;;23.94;78.56
65175;BME280;51761;42.126;24.752;2023-06-14T10:16:08;99371.28;;;23.57;81.28
65175;BME280;51761;42.126;24.752;2023-06-14T10:21:33;99378.25;;;24.27;78.04
65175;BME280;51761;42.126;24.752;2023-06-14T10:24:05;99385.59;;;24.96;72.32
65175;BME280;51761;42.126;24.752;2023-06-14T10:26:32;99361.00;;;25.33;69.93
65175;BME280;51761;42.126;24.752;2023-06-14T10:31:40;99375.84;;;26.25;64.83
65175;BME280;51761;42.126;24.752;2023-06-14T10:34:06;99366.63;;;26.62;63.00
65175;BME280;51761;42.126;24.752;2023-06-14T10:36:31;99348.94;;;27.00;61.78
65175;BME280;51761;42.126;24.752;2023-06-14T10:39:06;99374.63;;;27.30;61.58
65175;BME280;51761;42.126;24.752;2023-06-14T10:41:38;99380.88;;;27.47;61.00
65175;BME280;51761;42.126;24.752;2023-06-14T10:47:39;99356.66;;;27.11;61.45
65175;BME280;51761;42.126;24.752;2023-06-14T10:52:08;99369.66;;;27.30;60.80
65175;BME280;51761;42.126;24.752;2023-06-14T10:54:37;99363.81;;;27.54;60.56
65175;BME280;51761;42.126;24.752;2023-06-14T10:57:06;99363.22;;;27.92;58.79
65175;BME280;51761;42.126;24.752;2023-06-14T10:59:32;99355.03;;;27.83;58.78
65175;BME280;51761;42.126;24.752;2023-06-14T11:05:14;99342.63;;;28.20;56.74
65175;BME280;51761;42.126;24.752;2023-06-14T11:13:00;99359.81;;;28.38;53.86
65175;BME280;51761;42.126;24.752;2023-06-14T11:15:29;99353.63;;;28.47;54.82
65175;BME280;51761;42.126;24.752;2023-06-14T11:17:56;99352.84;;;28.60;54.06
65175;BME280;51761;42.126;24.752;2023-06-14T11:20:27;99354.59;;;28.50;54.04
65175;BME280;51761;42.126;24.752;2023-06-14T11:22:53;99344.78;;;28.58;52.71
65175;BME280;51761;42.126;24.752;2023-06-14T11:25:19;99350.09;;;28.80;52.05
65175;BME280;51761;42.126;24.752;2023-06-14T11:27:45;99342.34;;;29.34;50.80
65175;BME280;51761;42.126;24.752;2023-06-14T11:30:12;99318.75;;;29.49;51.03
65175;BME280;51761;42.126;24.752;2023-06-14T11:32:38;99342.41;;;29.22;51.17
65175;BME280;51761;42.126;24.752;2023-06-14T11:35:04;99333.38;;;29.51;50.92
65175;BME280;51761;42.126;24.752;2023-06-14T11:37:31;99309.78;;;30.14;49.77
65175;BME280;51761;42.126;24.752;2023-06-14T11:40:00;99329.84;;;30.55;50.79
65175;BME280;51761;42.126;24.752;2023-06-14T11:42:29;99340.19;;;30.71;48.39
65175;BME280;51761;42.126;24.752;2023-06-14T11:44:55;99325.13;;;30.57;47.71
65175;BME280;51761;42.126;24.752;2023-06-14T11:47:22;99322.69;;;30.48;48.75
65175;BME280;51761;42.126;24.752;2023-06-14T11:49:48;99330.38;;;30.18;49.01
65175;BME280;51761;42.126;24.752;2023-06-14T11:52:14;99323.69;;;30.23;48.67
65175;BME280;51761;42.126;24.752;2023-06-14T11:54:39;99321.16;;;29.99;50.79
65175;BME280;51761;42.126;24.752;2023-06-14T11:57:09;99323.34;;;30.06;48.76
65175;BME280;51761;42.126;24.752;2023-06-14T11:59:39;99315.25;;;30.25;50.14
65175;BME280;51761;42.126;24.752;2023-06-14T12:02:05;99310.41;;;30.76;47.65
65175;BME280;51761;42.126;24.752;2023-06-14T12:04:31;99315.13;;;30.94;46.49
65175;BME280;51761;42.126;24.752;2023-06-14T12:06:57;99315.13;;;30.94;47.40
65175;BME280;51761;42.126;24.752;2023-06-14T12:09:34;99296.34;;;30.65;47.62
65175;BME280;51761;42.126;24.752;2023-06-14T12:12:00;99309.59;;;30.40;48.44
65175;BME280;51761;42.126;24.752;2023-06-14T12:14:32;99311.72;;;30.67;49.97
65175;BME280;51761;42.126;24.752;2023-06-14T12:17:05;99297.88;;;30.66;46.10
65175;BME280;51761;42.126;24.752;2023-06-14T12:19:32;99306.28;;;30.92;47.41
65175;BME280;51761;42.126;24.752;2023-06-14T12:21:59;99300.84;;;31.23;45.61
65175;BME280;51761;42.126;24.752;2023-06-14T12:24:29;99302.25;;;30.95;46.04
65175;BME280;51761;42.126;24.752;2023-06-14T12:26:57;99291.25;;;31.36;46.22
65175;BME280;51761;42.126;24.752;2023-06-14T12:29:25;99271.72;;;31.07;46.75
65175;BME280;51761;42.126;24.752;2023-06-14T12:31:50;99281.78;;;31.28;47.85
65175;BME280;51761;42.126;24.752;2023-06-14T12:34:16;99278.81;;;31.63;45.48
65175;BME280;51761;42.126;24.752;2023-06-14T12:36:42;99279.19;;;31.67;46.87
65175;BME280;51761;42.126;24.752;2023-06-14T12:39:10;99255.28;;;30.87;47.45
65175;BME280;51761;42.126;24.752;2023-06-14T12:41:35;99276.63;;;30.20;46.57
65175;BME280;51761;42.126;24.752;2023-06-14T12:44:02;99269.78;;;29.62;47.38
65175;BME280;51761;42.126;24.752;2023-06-14T12:46:30;99243.44;;;29.38;48.93
65175;BME280;51761;42.126;24.752;2023-06-14T12:48:56;99236.78;;;29.42;47.81
65175;BME280;51761;42.126;24.752;2023-06-14T12:51:22;99245.91;;;29.74;48.05
65175;BME280;51761;42.126;24.752;2023-06-14T12:53:48;99248.59;;;30.00;49.00
65175;BME280;51761;42.126;24.752;2023-06-14T12:56:14;99206.88;;;29.66;47.30
65175;BME280;51761;42.126;24.752;2023-06-14T12:58:41;99242.97;;;30.15;46.98
65175;BME280;51761;42.126;24.752;2023-06-14T13:01:06;99232.56;;;30.12;46.66
65175;BME280;51761;42.126;24.752;2023-06-14T13:03:32;99258.22;;;30.31;45.55
65175;BME280;51761;42.126;24.752;2023-06-14T13:05:59;99246.28;;;29.99;46.52
65175;BME280;51761;42.126;24.752;2023-06-14T13:08:25;99234.13;;;29.65;46.71
65175;BME280;51761;42.126;24.752;2023-06-14T13:10:50;99237.41;;;29.48;47.56
65175;BME280;51761;42.126;24.752;2023-06-14T13:13:16;99247.69;;;29.44;47.96
65175;BME280;51761;42.126;24.752;2023-06-14T13:15:41;99252.00;;;29.30;47.65